Terminal Aerodrome Forecast
Issued by NWS

Home | Current Version | Previous Version | Text Only | Print | Product List | Glossary On
Versions: 1 2 3 4 5 6 7 8 9 10 11 12 13 14 15 16
853
FTAK31 PAJN 230522
TAFAWG
TAF
PAWG 230522Z 2306/2406 11014G22KT P6SM -RA FEW015 OVC045
      WS020/15040KT
     FM231500 11018G28KT 5SM -RA BR BKN025 OVC035 WS020/15040KT
     FM240300 14010KT 5SM -RA BR OVC020
      AMD LTD TO CLD VIS AND WIND 2306/2315=

USA.gov is the U.S. government's official web portal to all federal, state and local government web resources and services.